Time;durP1;ratioP1;P1;durP2;ratioP2;P2;SDS_P1;SDS_P2;PMS_P1;PMS_P2;Temp;Humidity;BMP_temperature;BMP_pressure;BME280_temperature;BME280_humidity;BME280_pressure;Samples;Min_cycle;Max_cycle;Signal;HPM_P1;HPM_P2
2021/08/01 00:01:23;;;;;;;10.70;4.30;;;;;;;17.81;58.54;99728.38;128668;1095;22800;-76
2021/08/01 00:03:53;;;;;;;12.40;4.60;;;;;;;17.80;58.78;99730.23;128404;1095;22347;-76
2021/08/01 00:06:27;;;;;;;8.23;4.88;;;;;;;17.77;58.73;99736.04;128584;1095;24485;-75
2021/08/01 00:08:57;;;;;;;12.23;4.98;;;;;;;17.75;58.61;99734.61;128630;1093;22360;-77
2021/08/01 00:11:26;;;;;;;8.58;4.10;;;;;;;17.72;58.34;99738.54;128533;1095;22340;-76
2021/08/01 00:13:56;;;;;;;10.80;4.05;;;;;;;17.70;58.66;99735.30;128635;1095;22344;-77
2021/08/01 00:16:26;;;;;;;9.63;4.33;;;;;;;17.67;58.45;99738.44;128288;1095;22347;-76
2021/08/01 00:18:58;;;;;;;7.23;4.18;;;;;;;17.65;58.89;99737.84;128341;1095;22349;-77
2021/08/01 00:21:30;;;;;;;9.13;4.58;;;;;;;17.63;59.07;99737.27;128252;1094;22675;-77
2021/08/01 00:24:00;;;;;;;7.20;5.03;;;;;;;17.60;58.76;99732.38;128568;1093;24186;-76
2021/08/01 00:26:30;;;;;;;14.47;5.20;;;;;;;17.57;58.78;99741.66;128286;1095;22347;-76
2021/08/01 00:29:00;;;;;;;7.75;5.10;;;;;;;17.56;58.62;99741.87;128593;1095;22638;-75
2021/08/01 00:31:30;;;;;;;7.53;5.18;;;;;;;17.53;58.38;99745.83;128589;1094;23810;-76
2021/08/01 00:34:00;;;;;;;13.10;6.90;;;;;;;17.48;58.23;99750.22;128318;1095;22353;-77
2021/08/01 00:36:31;;;;;;;13.20;7.65;;;;;;;17.41;58.04;99751.13;128284;1095;22370;-76
2021/08/01 00:39:00;;;;;;;14.48;9.28;;;;;;;17.32;57.73;99752.47;128246;1095;23123;-76
2021/08/01 00:41:33;;;;;;;13.20;8.58;;;;;;;17.23;58.23;99753.85;128555;1095;22353;-76
2021/08/01 00:44:04;;;;;;;18.08;8.93;;;;;;;17.18;58.40;99756.38;128639;1095;24230;-76
2021/08/01 00:46:33;;;;;;;14.95;8.40;;;;;;;17.09;58.18;99755.05;128285;1095;22381;-76
2021/08/01 00:49:04;;;;;;;12.27;7.70;;;;;;;17.02;58.33;99763.13;128248;1095;24492;-76
2021/08/01 00:51:35;;;;;;;12.77;7.63;;;;;;;16.91;58.78;99772.70;128557;1095;22353;-77
2021/08/01 00:54:06;;;;;;;11.53;6.90;;;;;;;16.84;59.19;99763.16;128350;1095;22346;-77
2021/08/01 00:56:37;;;;;;;11.63;7.38;;;;;;;16.79;59.39;99763.81;128318;1095;22347;-77
2021/08/01 00:59:07;;;;;;;9.88;6.60;;;;;;;16.78;59.69;99759.52;128285;1095;22378;-77
2021/08/01 01:01:51;;;;;;;11.80;6.60;;;;;;;16.79;59.39;99763.00;128289;1094;23195;-76
2021/08/01 01:05:36;;;;;;;13.83;7.20;;;;;;;16.80;59.79;99754.80;128282;1095;23325;-76
2021/08/01 01:08:23;;;;;;;19.68;8.25;;;;;;;16.85;59.67;99736.25;127943;1101;22369;-76
2021/08/01 01:11:19;;;;;;;12.45;6.53;;;;;;;16.90;59.62;99733.73;127977;1101;22385;-78
2021/08/01 01:13:56;;;;;;;11.28;6.93;;;;;;;16.96;59.36;99733.86;127869;1101;22450;-76
2021/08/01 01:16:37;;;;;;;12.80;8.43;;;;;;;16.98;59.58;99739.80;127931;1101;22369;-77
2021/08/01 01:19:14;;;;;;;10.75;6.55;;;;;;;16.98;59.27;99732.61;127478;1101;22393;-77
2021/08/01 01:22:08;;;;;;;10.65;7.50;;;;;;;17.00;59.50;99735.07;127876;1101;23332;-76
2021/08/01 01:24:53;;;;;;;14.53;6.53;;;;;;;16.98;59.54;99724.60;127603;1101;22369;-76
2021/08/01 01:27:39;;;;;;;11.30;6.08;;;;;;;16.98;59.17;99721.94;127839;1101;22457;-77
2021/08/01 01:30:12;;;;;;;8.38;5.95;;;;;;;16.97;59.54;99728.32;127922;1101;22573;-75
2021/08/01 01:33:00;;;;;;;8.20;6.40;;;;;;;17.00;59.53;99727.06;127854;1101;22370;-76
2021/08/01 01:35:38;;;;;;;10.53;6.50;;;;;;;17.02;59.16;99719.63;127682;1101;22368;-76
2021/08/01 01:38:09;;;;;;;14.08;9.25;;;;;;;17.03;59.27;99722.09;127647;1101;22369;-76
2021/08/01 01:41:00;;;;;;;11.80;6.50;;;;;;;17.06;59.37;99720.80;128163;1097;24237;-76
2021/08/01 01:43:51;;;;;;;11.10;5.88;;;;;;;17.08;59.28;99718.73;128292;1095;23422;-77
2021/08/01 01:46:24;;;;;;;14.38;10.48;;;;;;;17.07;58.96;99717.11;128298;1095;22350;-76
2021/08/01 01:48:56;;;;;;;13.20;6.63;;;;;;;17.09;59.58;99717.69;128368;1095;22389;-76
2021/08/01 01:51:27;;;;;;;12.68;5.70;;;;;;;17.07;59.54;99709.92;128280;1095;22452;-74
2021/08/01 01:53:56;;;;;;;13.45;9.70;;;;;;;17.09;59.45;99712.34;128310;1095;24985;-76
2021/08/01 01:56:30;;;;;;;8.70;6.45;;;;;;;17.08;59.79;99705.39;128285;1095;22356;-76
2021/08/01 01:59:04;;;;;;;9.98;6.38;;;;;;;17.06;59.37;99704.79;128576;1095;22337;-77
2021/08/01 02:01:35;;;;;;;13.00;6.65;;;;;;;16.98;59.18;99710.45;128351;1095;22351;-76
2021/08/01 02:04:06;;;;;;;13.90;6.55;;;;;;;16.88;59.43;99713.66;128239;1095;22343;-75
2021/08/01 02:06:55;;;;;;;17.10;7.45;;;;;;;16.71;59.73;99724.08;128309;1093;22382;-75
2021/08/01 02:10:02;;;;;;;12.00;7.50;;;;;;;16.61;60.31;99723.80;128339;1095;22337;-76
2021/08/01 02:12:53;;;;;;;10.40;6.30;;;;;;;16.56;60.43;99720.97;127969;1098;22367;-75
2021/08/01 02:15:55;;;;;;;9.45;5.83;;;;;;;16.54;60.46;99717.72;128011;1098;24514;-76
2021/08/01 02:18:41;;;;;;;8.10;6.78;;;;;;;16.58;60.83;99724.23;127940;1097;22346;-76
2021/08/01 02:21:11;;;;;;;15.30;6.60;;;;;;;16.60;61.04;99730.98;127947;1098;22399;-76
2021/08/01 02:23:45;;;;;;;11.03;6.95;;;;;;;16.65;60.41;99728.45;127956;1098;22433;-76
2021/08/01 02:26:20;;;;;;;23.40;18.60;;;;;;;16.68;60.79;99730.67;127978;1098;22340;-76
2021/08/01 02:28:52;;;;;;;11.73;9.18;;;;;;;16.70;60.90;99725.13;128178;1098;22692;-77
2021/08/01 02:31:24;;;;;;;8.53;6.73;;;;;;;16.69;60.74;99729.66;128058;1098;24536;-76
2021/08/01 02:33:54;;;;;;;;;;;;;;;16.60;60.26;99732.84;128041;1098;22372;-76
2021/08/01 02:36:26;;;;;;;10.98;6.63;;;;;;;16.48;60.88;99738.89;127943;1098;22003;-76
2021/08/01 02:38:58;;;;;;;13.78;8.05;;;;;;;16.40;61.49;99744.52;128196;1098;22355;-78
2021/08/01 02:41:39;;;;;;;85.73;78.20;;;;;;;16.34;61.37;99752.58;128057;1098;22359;-78
2021/08/01 02:44:20;;;;;;;11.13;7.13;;;;;;;16.29;61.66;99755.89;127974;1098;22375;-76
2021/08/01 02:46:53;;;;;;;11.35;6.48;;;;;;;16.27;61.67;99754.50;127958;1098;22378;-76
2021/08/01 02:49:28;;;;;;;12.10;7.20;;;;;;;16.31;62.00;99755.69;128109;1095;22364;-76
2021/08/01 02:52:03;;;;;;;14.55;6.55;;;;;;;16.30;61.36;99754.88;128305;1093;22452;-77
2021/08/01 02:54:36;;;;;;;11.73;6.90;;;;;;;16.29;62.00;99760.41;128289;1095;22368;-76
2021/08/01 02:57:11;;;;;;;10.35;6.48;;;;;;;16.29;61.91;99763.88;128397;1095;22356;-76
2021/08/01 02:59:42;;;;;;;9.95;6.23;;;;;;;16.26;61.78;99764.35;128570;1095;22343;-75
2021/08/01 03:02:13;;;;;;;;;;;;;;;16.18;61.60;99764.61;128694;1094;22413;-75
2021/08/01 03:04:53;;;;;;;12.70;6.05;;;;;;;16.09;62.08;99763.25;128663;1095;23940;-76
2021/08/01 03:07:23;;;;;;;;;;;;;;;16.05;62.20;99759.39;128390;1095;22343;-76
2021/08/01 03:09:54;;;;;;;12.73;6.25;;;;;;;16.03;62.22;99759.63;128608;1095;21253;-77
2021/08/01 03:12:24;;;;;;;8.90;5.93;;;;;;;16.05;62.17;99762.88;128652;1094;24310;-77
2021/08/01 03:14:54;;;;;;;9.65;7.03;;;;;;;16.05;62.80;99773.53;128601;1095;22362;-76
2021/08/01 03:17:23;;;;;;;11.25;7.05;;;;;;;16.07;62.45;99765.34;128600;1095;22370;-77
2021/08/01 03:19:54;;;;;;;12.25;7.30;;;;;;;16.13;62.33;99772.46;128608;1093;22359;-77
2021/08/01 03:22:25;;;;;;;10.43;5.95;;;;;;;16.16;62.40;99770.17;128299;1094;22353;-75
2021/08/01 03:24:55;;;;;;;13.15;6.35;;;;;;;16.18;62.59;99762.76;128308;1095;22344;-76
2021/08/01 03:27:26;;;;;;;10.20;6.25;;;;;;;16.22;62.66;99769.28;128652;1093;22348;-76
2021/08/01 03:29:57;;;;;;;11.13;6.48;;;;;;;16.25;62.76;99773.36;128355;1095;22366;-77
2021/08/01 03:32:26;;;;;;;9.93;6.83;;;;;;;16.27;62.70;99770.49;128623;1094;22357;-77
2021/08/01 03:34:56;;;;;;;11.08;6.50;;;;;;;16.27;63.02;99763.30;128445;1095;22366;-76
2021/08/01 03:37:28;;;;;;;10.38;7.13;;;;;;;16.27;62.99;99762.50;128608;1095;24489;-76
2021/08/01 03:40:17;;;;;;;10.43;5.88;;;;;;;16.27;62.95;99765.97;128404;1095;22350;-76
2021/08/01 03:42:48;;;;;;;12.50;6.10;;;;;;;16.27;63.02;99759.83;128355;1095;22356;-76
2021/08/01 03:45:17;;;;;;;14.18;5.98;;;;;;;16.29;62.89;99763.88;128497;1095;22359;-77
2021/08/01 03:47:47;;;;;;;10.55;6.43;;;;;;;16.31;62.96;99769.02;128620;1095;22347;-76
2021/08/01 03:50:17;;;;;;;9.05;6.35;;;;;;;16.30;62.98;99764.73;128403;1095;22330;-77
2021/08/01 03:52:46;;;;;;;8.30;6.58;;;;;;;16.32;63.05;99773.30;128630;1094;22343;-76
2021/08/01 03:55:16;;;;;;;12.23;8.00;;;;;;;16.31;62.72;99764.49;128294;1095;22371;-76
2021/08/01 03:57:45;;;;;;;17.08;6.98;;;;;;;16.32;63.28;99763.45;128268;1095;22359;-76
2021/08/01 04:00:15;;;;;;;8.33;6.88;;;;;;;16.34;63.11;99763.25;128252;1095;22351;-76
2021/08/01 04:02:45;;;;;;;12.98;7.03;;;;;;;16.35;63.17;99749.69;128603;1094;22355;-76
2021/08/01 04:05:15;;;;;;;10.00;6.40;;;;;;;16.36;63.36;99758.49;128598;1095;22347;-76
2021/08/01 04:07:45;;;;;;;14.03;7.08;;;;;;;16.36;63.37;99759.33;128278;1095;22344;-76
2021/08/01 04:10:15;;;;;;;13.80;7.28;;;;;;;16.37;63.45;99750.30;128560;1094;22359;-76
2021/08/01 04:12:44;;;;;;;17.63;9.53;;;;;;;16.35;63.39;99748.88;128591;1093;24250;-76
2021/08/01 04:15:15;;;;;;;17.23;7.48;;;;;;;16.34;63.48;99749.92;128586;1095;22353;-76
2021/08/01 04:17:45;;;;;;;19.87;7.73;;;;;;;16.35;63.93;99763.02;128577;1095;23178;-77
2021/08/01 04:20:15;;;;;;;14.60;8.65;;;;;;;16.35;63.45;99759.53;128313;1095;22337;-75
2021/08/01 04:22:45;;;;;;;15.20;7.58;;;;;;;16.36;63.62;99763.83;128572;1094;23101;-76
2021/08/01 04:25:14;;;;;;;10.38;7.28;;;;;;;16.38;63.96;99759.09;128584;1095;24492;-76
2021/08/01 04:27:44;;;;;;;10.53;6.75;;;;;;;16.40;63.65;99763.18;128298;1095;22356;-76
2021/08/01 04:30:14;;;;;;;11.58;7.00;;;;;;;16.44;64.32;99759.03;128561;1095;22394;-76
2021/08/01 04:32:43;;;;;;;7.55;6.20;;;;;;;16.47;63.91;99760.45;128571;1095;22337;-76
2021/08/01 04:35:13;;;;;;;11.50;7.35;;;;;;;16.51;64.08;99756.30;128287;1095;22383;-76
2021/08/01 04:37:42;;;;;;;12.53;6.18;;;;;;;16.56;63.83;99759.13;128550;1095;24039;-76
2021/08/01 04:40:13;;;;;;;13.83;8.03;;;;;;;16.60;64.08;99757.64;128296;1095;22340;-76
2021/08/01 04:42:43;;;;;;;13.93;7.07;;;;;;;16.68;64.22;99767.20;128624;1095;22857;-76
2021/08/01 04:45:12;;;;;;;11.15;6.88;;;;;;;16.76;64.14;99753.61;128623;1095;22347;-77
2021/08/01 04:47:42;;;;;;;10.58;7.20;;;;;;;16.87;64.49;99754.72;128311;1095;24249;-76
2021/08/01 04:50:12;;;;;;;14.23;7.78;;;;;;;16.98;64.65;99766.48;128656;1095;24514;-76
2021/08/01 04:52:41;;;;;;;8.65;5.95;;;;;;;17.09;64.17;99765.72;128622;1095;22333;-76
2021/08/01 04:55:12;;;;;;;11.30;6.35;;;;;;;17.19;63.95;99771.33;128568;1095;23079;-77
2021/08/01 04:57:42;;;;;;;13.75;10.15;;;;;;;17.30;63.88;99756.44;128670;1095;22334;-77
2021/08/01 05:00:13;;;;;;;10.53;5.83;;;;;;;17.38;63.79;99754.24;128608;1095;23129;-77
2021/08/01 05:02:42;;;;;;;9.03;7.63;;;;;;;17.46;63.38;99761.14;128574;1095;22360;-76
2021/08/01 05:05:13;;;;;;;11.28;7.90;;;;;;;17.55;63.21;99748.27;128622;1095;23219;-76
2021/08/01 05:07:42;;;;;;;24.30;7.23;;;;;;;17.61;62.98;99753.50;128340;1094;22334;-76
2021/08/01 05:10:12;;;;;;;12.28;6.68;;;;;;;17.66;62.73;99755.51;128572;1095;24988;-75
2021/08/01 05:12:41;;;;;;;13.35;6.75;;;;;;;17.73;63.00;99750.06;128619;1093;22352;-76
2021/08/01 05:15:12;;;;;;;8.28;6.18;;;;;;;17.82;62.61;99746.84;128286;1095;22364;-76
2021/08/01 05:17:42;;;;;;;10.35;6.23;;;;;;;17.96;62.71;99739.45;128716;1093;22334;-77
2021/08/01 05:20:12;;;;;;;10.48;5.40;;;;;;;18.12;62.36;99732.58;128647;1093;22368;-77
2021/08/01 05:22:42;;;;;;;8.60;5.10;;;;;;;18.32;62.02;99729.55;128568;1095;22359;-76
2021/08/01 05:25:11;;;;;;;13.98;6.63;;;;;;;18.55;61.81;99724.17;128643;1095;22333;-76
2021/08/01 05:27:41;;;;;;;14.45;5.10;;;;;;;18.85;61.47;99720.53;128670;1093;24476;-76
2021/08/01 05:30:10;;;;;;;12.33;5.20;;;;;;;19.19;60.60;99726.00;128597;1095;22352;-76
2021/08/01 05:32:40;;;;;;;19.23;16.95;;;;;;;19.52;59.85;99728.73;128597;1095;22352;-77
2021/08/01 05:35:10;;;;;;;19.25;17.15;;;;;;;19.80;58.33;99721.75;128635;1095;24215;-76
2021/08/01 05:37:39;;;;;;;17.35;13.48;;;;;;;19.95;56.83;99727.33;128574;1095;23033;-75
2021/08/01 05:40:11;;;;;;;12.45;7.43;;;;;;;20.06;55.69;99728.33;128584;1095;22337;-76
2021/08/01 05:42:40;;;;;;;7.43;5.18;;;;;;;20.16;55.59;99733.03;128308;1095;22336;-75
2021/08/01 05:45:10;;;;;;;11.55;5.10;;;;;;;20.20;55.03;99740.33;128526;1095;22354;-76
2021/08/01 05:47:40;;;;;;;5.58;4.00;;;;;;;20.27;55.19;99742.84;128570;1094;22354;-76
2021/08/01 05:50:10;;;;;;;9.28;4.93;;;;;;;20.37;55.14;99736.81;128641;1095;22338;-77
2021/08/01 05:52:39;;;;;;;8.73;6.03;;;;;;;20.42;55.23;99742.23;128632;1094;22334;-77
2021/08/01 05:55:10;;;;;;;8.38;6.03;;;;;;;20.47;54.32;99736.14;128663;1094;23113;-77
2021/08/01 05:57:39;;;;;;;13.23;6.35;;;;;;;20.50;54.70;99736.45;128624;1095;24227;-77
2021/08/01 06:00:10;;;;;;;13.53;6.15;;;;;;;20.46;54.48;99732.64;128586;1094;24476;-77
2021/08/01 06:02:40;;;;;;;9.35;6.48;;;;;;;20.43;54.61;99727.77;128305;1095;22353;-77
2021/08/01 06:05:10;;;;;;;9.60;5.70;;;;;;;20.43;54.79;99723.22;128618;1095;22333;-77
2021/08/01 06:07:40;;;;;;;12.05;6.25;;;;;;;20.57;55.15;99726.38;128602;1095;23232;-76
2021/08/01 06:10:10;;;;;;;8.35;6.05;;;;;;;20.77;54.95;99728.51;128580;1095;22331;-76
2021/08/01 06:12:40;;;;;;;8.90;5.85;;;;;;;20.97;54.58;99724.44;128598;1095;22387;-76
2021/08/01 06:15:10;;;;;;;8.68;6.03;;;;;;;21.12;54.30;99722.71;128623;1095;22333;-76
2021/08/01 06:17:40;;;;;;;14.80;6.28;;;;;;;21.26;54.26;99720.47;128304;1095;22343;-76
2021/08/01 06:20:11;;;;;;;8.93;6.10;;;;;;;21.42;53.97;99724.13;128332;1095;22404;-76
2021/08/01 06:22:41;;;;;;;;;;;;;;;21.82;55.11;99720.16;128643;1095;22775;-76
2021/08/01 06:25:11;;;;;;;9.63;6.08;;;;;;;22.21;53.83;99718.05;128632;1095;21267;-76
2021/08/01 06:27:40;;;;;;;13.08;6.45;;;;;;;22.68;52.21;99713.72;128589;1095;24476;-77
2021/08/01 06:30:10;;;;;;;8.78;6.30;;;;;;;23.17;51.88;99716.06;128617;1092;22328;-76
2021/08/01 06:32:40;;;;;;;8.20;6.18;;;;;;;23.75;50.88;99716.67;128666;1094;22334;-76
2021/08/01 06:35:10;;;;;;;9.28;4.60;;;;;;;24.29;48.94;99721.48;128616;1095;22333;-76
2021/08/01 06:37:40;;;;;;;6.68;4.80;;;;;;;24.67;47.62;99727.32;128582;1095;22813;-77
2021/08/01 06:40:11;;;;;;;7.85;6.00;;;;;;;25.01;46.58;99737.44;128622;1095;22349;-76
2021/08/01 06:42:42;;;;;;;5.80;3.23;;;;;;;25.33;45.05;99726.20;128363;1095;22465;-76
2021/08/01 06:45:12;;;;;;;6.87;3.30;;;;;;;25.61;43.30;99721.93;128675;1095;23110;-77
2021/08/01 06:47:41;;;;;;;7.50;5.05;;;;;;;25.78;41.96;99707.99;128647;1095;22331;-76
2021/08/01 06:50:11;;;;;;;5.28;3.75;;;;;;;26.00;41.24;99704.86;128687;1094;23286;-76
2021/08/01 06:52:40;;;;;;;4.10;2.50;;;;;;;26.41;40.54;99717.95;128309;1095;22402;-76
2021/08/01 06:55:10;;;;;;;5.45;2.28;;;;;;;26.78;39.86;99711.05;128307;1095;22334;-77
2021/08/01 06:57:40;;;;;;;6.90;2.47;;;;;;;27.01;39.11;99701.25;128659;1095;22369;-77
2021/08/01 07:00:10;;;;;;;4.58;2.00;;;;;;;27.05;38.36;99703.07;128634;1095;22334;-77
2021/08/01 07:02:40;;;;;;;8.70;7.00;;;;;;;27.15;38.34;99696.73;128700;1095;22340;-77
2021/08/01 07:05:10;;;;;;;7.20;6.25;;;;;;;27.18;37.71;99691.52;128651;1095;22355;-77
2021/08/01 07:07:40;;;;;;;9.10;5.48;;;;;;;27.18;37.33;99704.28;128604;1095;22338;-77
2021/08/01 07:10:10;;;;;;;6.93;4.30;;;;;;;27.16;37.43;99709.21;128624;1095;23102;-76
2021/08/01 07:12:43;;;;;;;6.20;5.60;;;;;;;27.15;36.86;99713.80;128633;1095;22338;-77
2021/08/01 07:15:16;;;;;;;7.48;6.78;;;;;;;27.03;36.58;99707.20;128662;1095;22400;-78
2021/08/01 07:17:47;;;;;;;6.53;5.83;;;;;;;27.04;36.77;99696.05;128727;1095;24460;-78
2021/08/01 07:20:16;;;;;;;;;;;;;;;27.16;36.22;99701.08;128664;1095;22333;-77
2021/08/01 07:22:46;;;;;;;7.95;4.33;;;;;;;27.24;36.79;99694.17;128626;1093;21250;-78
2021/08/01 07:25:16;;;;;;;6.88;3.00;;;;;;;27.42;35.91;99688.73;128299;1095;22343;-77
2021/08/01 07:27:46;;;;;;;5.13;4.58;;;;;;;27.54;35.25;99685.55;128300;1095;22635;-78
2021/08/01 07:30:16;;;;;;;4.98;4.33;;;;;;;27.62;35.04;99675.92;128616;1095;22367;-77
2021/08/01 07:32:48;;;;;;;7.78;2.55;;;;;;;27.72;34.44;99675.74;128553;1094;22777;-77
2021/08/01 07:35:17;;;;;;;5.25;1.93;;;;;;;27.78;34.36;99671.88;128560;1094;24287;-78
2021/08/01 07:37:48;;;;;;;4.38;2.20;;;;;;;27.75;33.88;99679.77;128254;1095;23306;-76
2021/08/01 07:40:17;;;;;;;6.20;2.37;;;;;;;27.52;33.59;99681.52;128292;1095;24486;-77
2021/08/01 07:42:47;;;;;;;3.28;2.20;;;;;;;27.26;34.00;99681.11;128250;1095;22365;-78
2021/08/01 07:45:34;;;;;;;4.15;1.65;;;;;;;26.99;34.68;99685.27;128572;1095;22362;-77
2021/08/01 07:48:04;;;;;;;2.50;1.70;;;;;;;26.63;35.61;99680.34;128367;1095;22343;-77
2021/08/01 07:50:34;;;;;;;5.13;2.60;;;;;;;26.32;36.13;99679.86;128585;1095;22366;-78
2021/08/01 07:53:03;;;;;;;7.63;4.83;;;;;;;26.07;36.33;99682.87;128274;1095;22348;-78
2021/08/01 07:55:33;;;;;;;9.60;2.97;;;;;;;25.83;36.31;99682.84;128583;1095;22367;-78
2021/08/01 07:58:02;;;;;;;7.00;2.30;;;;;;;25.54;36.47;99672.77;128576;1095;22347;-78
2021/08/01 08:00:32;;;;;;;3.65;1.68;;;;;;;25.21;36.78;99672.48;128251;1094;22354;-78
2021/08/01 08:03:02;;;;;;;5.40;1.80;;;;;;;24.98;37.11;99673.14;128296;1095;22362;-78
2021/08/01 08:05:32;;;;;;;6.05;3.88;;;;;;;24.85;37.81;99669.16;128261;1095;22392;-77
2021/08/01 08:08:02;;;;;;;4.43;3.10;;;;;;;24.86;38.01;99654.58;128581;1095;22363;-78
2021/08/01 08:10:31;;;;;;;9.78;3.13;;;;;;;24.84;38.14;99646.73;128272;1095;22347;-78
2021/08/01 08:13:01;;;;;;;6.30;2.63;;;;;;;24.85;37.92;99650.25;128307;1095;24498;-77
2021/08/01 08:15:32;;;;;;;5.83;3.03;;;;;;;24.85;38.17;99647.55;128278;1095;22351;-78
2021/08/01 08:18:02;;;;;;;6.65;2.93;;;;;;;24.83;38.84;99645.13;128342;1095;22407;-78
2021/08/01 08:20:32;;;;;;;5.63;2.25;;;;;;;24.81;38.72;99632.98;128278;1095;22370;-77
2021/08/01 08:23:01;;;;;;;5.18;2.58;;;;;;;24.76;38.33;99643.81;128537;1095;24514;-77
2021/08/01 08:25:32;;;;;;;3.28;1.83;;;;;;;24.65;38.21;99641.16;128296;1095;24512;-77
2021/08/01 08:28:02;;;;;;;6.95;1.75;;;;;;;24.53;38.40;99640.70;128273;1095;24495;-77
2021/08/01 08:30:31;;;;;;;4.20;1.73;;;;;;;24.45;38.47;99637.76;128286;1095;22379;-77
2021/08/01 08:33:01;;;;;;;4.15;2.00;;;;;;;24.34;38.65;99643.17;128262;1094;22421;-76
2021/08/01 08:35:31;;;;;;;5.90;2.93;;;;;;;24.29;39.14;99640.51;128571;1095;22661;-77
2021/08/01 08:38:00;;;;;;;3.95;1.70;;;;;;;24.17;38.68;99648.90;128577;1095;22432;-77
2021/08/01 08:40:38;;;;;;;3.53;1.50;;;;;;;24.03;38.76;99636.27;128752;1095;22465;-77
2021/08/01 08:43:08;;;;;;;4.65;1.90;;;;;;;23.95;39.36;99641.13;128269;1095;22645;-77
2021/08/01 08:45:44;;;;;;;9.95;5.58;;;;;;;23.93;39.56;99639.80;128306;1095;22798;-78
2021/08/01 08:48:16;;;;;;;7.63;2.78;;;;;;;23.92;39.49;99638.16;128620;1095;22337;-78
2021/08/01 08:50:50;;;;;;;5.20;2.10;;;;;;;23.80;39.18;99646.56;128316;1095;22347;-77
2021/08/01 08:53:25;;;;;;;4.48;2.10;;;;;;;23.76;39.50;99648.19;128568;1095;22332;-77
2021/08/01 08:55:55;;;;;;;18.33;14.63;;;;;;;23.79;39.49;99653.05;128307;1095;24489;-76
2021/08/01 08:58:29;;;;;;;9.63;2.85;;;;;;;23.78;39.53;99646.02;128266;1095;22370;-77
2021/08/01 09:00:59;;;;;;;6.40;2.98;;;;;;;23.70;39.58;99651.97;128270;1095;22627;-76
2021/08/01 09:03:29;;;;;;;4.50;2.60;;;;;;;23.61;40.14;99648.17;128321;1095;24278;-77
2021/08/01 09:05:59;;;;;;;11.50;2.20;;;;;;;23.58;40.68;99651.41;128612;1095;22337;-78
2021/08/01 09:08:29;;;;;;;6.90;2.88;;;;;;;23.54;40.71;99655.72;128325;1095;24229;-77
2021/08/01 09:11:00;;;;;;;7.68;2.35;;;;;;;23.53;40.86;99659.52;128319;1094;22342;-76
2021/08/01 09:13:52;;;;;;;13.30;11.35;;;;;;;23.49;40.80;99654.66;128685;1093;22337;-76
2021/08/01 09:16:42;;;;;;;4.88;2.90;;;;;;;23.44;41.11;99662.73;128676;1095;22335;-76
2021/08/01 09:19:36;;;;;;;4.13;1.90;;;;;;;23.27;41.01;99666.77;128621;1095;22340;-76
2021/08/01 09:22:19;;;;;;;5.88;2.73;;;;;;;23.13;41.49;99666.48;128614;1095;22345;-76
2021/08/01 09:24:52;;;;;;;5.03;2.45;;;;;;;23.08;42.29;99669.97;128286;1095;22352;-76
2021/08/01 09:27:31;;;;;;;7.13;2.23;;;;;;;23.10;42.46;99675.91;128342;1095;23119;-76
2021/08/01 09:30:04;;;;;;;5.35;2.13;;;;;;;23.09;42.51;99676.99;128317;1095;24412;-76
2021/08/01 09:32:49;;;;;;;5.13;2.20;;;;;;;22.99;42.73;99677.78;128669;1094;22330;-76
2021/08/01 09:35:21;;;;;;;3.63;2.50;;;;;;;22.82;42.98;99689.80;128306;1095;22330;-75
2021/08/01 09:37:57;;;;;;;3.35;2.13;;;;;;;22.65;43.39;99696.20;128633;1095;22358;-77
2021/08/01 09:40:33;;;;;;;5.48;2.33;;;;;;;22.53;44.46;99704.51;128391;1095;22334;-76
2021/08/01 09:43:08;;;;;;;6.28;2.68;;;;;;;22.37;45.59;99713.58;128647;1095;24174;-75
2021/08/01 09:45:38;;;;;;;6.65;2.63;;;;;;;22.24;46.45;99714.84;128661;1095;22345;-75
2021/08/01 09:48:21;;;;;;;5.03;4.50;;;;;;;22.13;47.49;99729.28;128441;1095;24489;-76
2021/08/01 09:51:03;;;;;;;4.13;2.73;;;;;;;22.03;48.03;99732.70;128409;1095;22378;-76
2021/08/01 09:53:34;;;;;;;6.13;2.85;;;;;;;21.80;48.95;99728.50;128564;1095;22380;-76
2021/08/01 09:56:20;;;;;;;8.13;2.90;;;;;;;21.65;50.32;99722.98;128329;1095;24515;-75
2021/08/01 09:58:50;;;;;;;4.45;2.80;;;;;;;21.46;50.94;99703.77;128327;1095;22366;-77
2021/08/01 10:01:20;;;;;;;6.33;3.47;;;;;;;21.31;51.40;99706.27;128282;1095;22370;-76
2021/08/01 10:03:50;;;;;;;5.80;3.73;;;;;;;21.15;52.12;99708.78;128549;1095;22351;-76
2021/08/01 10:06:24;;;;;;;7.73;3.60;;;;;;;21.07;52.72;99695.82;128535;1095;22346;-76
2021/08/01 10:08:54;;;;;;;6.78;3.85;;;;;;;21.01;53.35;99688.77;128288;1095;24991;-76
2021/08/01 10:11:26;;;;;;;7.28;3.50;;;;;;;20.98;54.24;99691.95;128211;1095;22578;-76
2021/08/01 10:13:56;;;;;;;;;;;;;;;20.82;54.32;99682.11;128326;1095;22374;-75
2021/08/01 10:16:26;;;;;;;6.20;3.85;;;;;;;20.70;54.79;99684.95;128334;1095;22016;-77
2021/08/01 10:18:55;;;;;;;6.65;4.63;;;;;;;20.68;55.81;99685.17;128606;1095;22346;-77
2021/08/01 10:21:25;;;;;;;6.83;4.45;;;;;;;20.75;56.26;99676.94;128579;1095;23125;-76
2021/08/01 10:24:00;;;;;;;7.25;4.85;;;;;;;20.83;56.48;99671.14;128268;1094;22357;-76
2021/08/01 10:26:47;;;;;;;5.20;4.17;;;;;;;20.88;56.67;99665.81;128265;1095;22334;-76
2021/08/01 10:29:33;;;;;;;9.90;4.93;;;;;;;20.97;56.66;99671.55;128278;1095;23113;-75
2021/08/01 10:32:10;;;;;;;5.25;3.40;;;;;;;20.96;56.75;99667.25;128539;1095;22347;-75
2021/08/01 10:35:12;;;;;;;6.83;3.55;;;;;;;20.90;56.26;99673.63;128239;1095;22347;-76
2021/08/01 10:37:45;;;;;;;6.85;4.33;;;;;;;20.72;56.26;99672.06;128308;1095;24252;-78
2021/08/01 10:40:21;;;;;;;5.00;2.75;;;;;;;20.63;56.66;99682.45;128922;1095;22333;-76
2021/08/01 10:43:00;;;;;;;5.78;2.75;;;;;;;20.52;56.39;99683.36;128293;1095;22348;-75
2021/08/01 10:45:31;;;;;;;3.95;2.73;;;;;;;20.44;57.19;99695.31;128312;1095;24523;-76
2021/08/01 10:48:01;;;;;;;5.98;2.18;;;;;;;20.43;56.59;99704.44;128447;1095;23172;-77
2021/08/01 10:50:32;;;;;;;2.68;2.38;;;;;;;20.38;56.52;99700.87;128668;1094;22445;-77
2021/08/01 10:53:20;;;;;;;4.35;3.10;;;;;;;20.37;56.91;99708.11;128553;1094;22624;-75
2021/08/01 10:56:06;;;;;;;5.95;3.28;;;;;;;20.36;57.39;99705.66;128601;1095;22452;-75
2021/08/01 10:58:40;;;;;;;9.25;5.95;;;;;;;20.39;58.14;99697.11;128566;1093;22355;-77
2021/08/01 11:01:10;;;;;;;8.23;7.15;;;;;;;20.43;58.89;99699.07;128628;1095;24227;-76
2021/08/01 11:03:41;;;;;;;4.68;3.88;;;;;;;20.36;58.35;99689.56;128328;1095;22349;-76
2021/08/01 11:06:35;;;;;;;;;;;;;;;20.29;58.81;99700.47;128642;1093;22342;-78
2021/08/01 11:09:13;;;;;;;4.55;3.13;;;;;;;20.22;59.31;99706.01;128641;1093;22334;-76
2021/08/01 11:11:45;;;;;;;4.83;3.05;;;;;;;20.20;60.14;99705.46;128307;1095;22349;-76
2021/08/01 11:14:48;;;;;;;3.33;2.40;;;;;;;20.21;60.04;99707.08;128237;1095;22344;-75
2021/08/01 11:17:18;;;;;;;4.35;2.50;;;;;;;20.17;59.85;99686.38;128229;1097;22877;-75
2021/08/01 11:19:49;;;;;;;5.65;2.60;;;;;;;20.14;60.49;99687.67;127955;1100;22677;-75
2021/08/01 11:22:40;;;;;;;3.80;2.37;;;;;;;20.14;61.04;99690.35;127919;1098;22377;-75
2021/08/01 11:25:28;;;;;;;8.18;2.60;;;;;;;20.12;60.61;99691.65;127999;1098;22369;-76
2021/08/01 11:28:32;;;;;;;5.43;2.23;;;;;;;20.08;60.36;99696.70;127957;1101;22362;-75
2021/08/01 11:31:22;;;;;;;4.98;1.90;;;;;;;20.06;60.46;99701.52;127453;1101;22844;-75
2021/08/01 11:33:54;;;;;;;3.57;2.13;;;;;;;20.00;60.22;99699.00;126992;1103;22401;-76
2021/08/01 11:36:33;;;;;;;4.03;2.00;;;;;;;19.99;60.48;99698.16;126967;1105;22420;-76
2021/08/01 11:39:05;;;;;;;4.13;1.90;;;;;;;19.97;60.68;99714.51;127448;1105;22365;-75
2021/08/01 11:41:38;;;;;;;4.00;2.30;;;;;;;19.94;60.43;99723.03;127401;1105;23125;-76
2021/08/01 11:44:17;;;;;;;5.30;1.98;;;;;;;19.91;60.20;99726.20;127431;1102;24499;-75
2021/08/01 11:47:10;;;;;;;4.78;2.13;;;;;;;19.85;60.09;99718.33;127448;1104;24511;-75
2021/08/01 11:49:49;;;;;;;3.80;2.25;;;;;;;19.75;60.29;99701.02;126957;1105;22374;-76
2021/08/01 11:52:44;;;;;;;3.93;2.10;;;;;;;19.67;60.25;99685.36;126927;1105;24524;-76
2021/08/01 11:55:17;;;;;;;4.43;3.35;;;;;;;19.55;60.52;99689.95;126983;1105;22410;-77